Wetterdaten: Sonntag, 21.03.2010
Datum Zeit Temp. A. Feuchte A. Luftdruck Regen Wind Richtung Richtung Sonnenschein UV Solar Windben
21.03.2010 00:00 13,3 C 80 % 1006,6 hPa 0,0 mm 3,2 km/h (1 Bft) SW 225 0 min 0 UV-I 0 W/m 11,3 km/h (2 Bft)
21.03.2010 00:10 13,4 C 80 % 1006,5 hPa 0,0 mm 3,2 km/h (1 Bft) SW 225 0 min 0 UV-I 0 W/m 11,3 km/h (2 Bft)
21.03.2010 00:20 13,4 C 81 % 1006,5 hPa 0,0 mm 3,2 km/h (1 Bft) SW 225 0 min 0 UV-I 0 W/m 11,3 km/h (2 Bft)
21.03.2010 00:30 13,4 C 81 % 1006,4 hPa 0,0 mm 4,8 km/h (1 Bft) SW 225 0 min 0 UV-I 0 W/m 16,1 km/h (3 Bft)
21.03.2010 00:40 13,5 C 80 % 1006,4 hPa 0,0 mm 4,8 km/h (1 Bft) SW 225 0 min 0 UV-I 0 W/m 16,1 km/h (3 Bft)
21.03.2010 00:50 13,6 C 80 % 1006,3 hPa 0,0 mm 6,4 km/h (2 Bft) S-SW 202 0 min 0 UV-I 0 W/m 19,3 km/h (3 Bft)
21.03.2010 01:00 13,7 C 80 % 1006,1 hPa 0,0 mm 4,8 km/h (1 Bft) S-SW 202 0 min 0 UV-I 0 W/m 16,1 km/h (3 Bft)
21.03.2010 01:10 13,7 C 80 % 1006,1 hPa 0,0 mm 4,8 km/h (1 Bft) SW 225 0 min 0 UV-I 0 W/m 16,1 km/h (3 Bft)
21.03.2010 01:20 13,7 C 80 % 1006,0 hPa 0,0 mm 4,8 km/h (1 Bft) W-SW 247 0 min 0 UV-I 0 W/m 16,1 km/h (3 Bft)
21.03.2010 01:30 13,7 C 80 % 1005,9 hPa 0,0 mm 4,8 km/h (1 Bft) SW 225 0 min 0 UV-I 0 W/m 17,7 km/h (3 Bft)
21.03.2010 01:40 13,8 C 80 % 1006,0 hPa 0,0 mm 4,8 km/h (1 Bft) SW 225 0 min 0 UV-I 0 W/m 19,3 km/h (3 Bft)
21.03.2010 01:50 13,7 C 83 % 1005,9 hPa 0,3 mm 6,4 km/h (2 Bft) SW 225 0 min 0 UV-I 0 W/m 20,9 km/h (4 Bft)
21.03.2010 02:00 13,3 C 85 % 1005,9 hPa 0,0 mm 3,2 km/h (1 Bft) SW 225 0 min 0 UV-I 0 W/m 9,7 km/h (2 Bft)
21.03.2010 02:10 13,1 C 85 % 1005,7 hPa 0,0 mm 3,2 km/h (1 Bft) SW 225 0 min 0 UV-I 0 W/m 17,7 km/h (3 Bft)
21.03.2010 02:20 12,9 C 85 % 1005,6 hPa 0,0 mm 1,6 km/h (1 Bft) S-SW 202 0 min 0 UV-I 0 W/m 8,0 km/h (2 Bft)
21.03.2010 02:30 12,9 C 84 % 1005,4 hPa 0,0 mm 1,6 km/h (1 Bft) S-SW 202 0 min 0 UV-I 0 W/m 9,7 km/h (2 Bft)
21.03.2010 02:40 13,0 C 84 % 1005,2 hPa 0,0 mm 4,8 km/h (1 Bft) S-SW 202 0 min 0 UV-I 0 W/m 14,5 km/h (3 Bft)
21.03.2010 02:50 13,2 C 82 % 1005,1 hPa 0,0 mm 8,0 km/h (2 Bft) SW 225 0 min 0 UV-I 0 W/m 22,5 km/h (4 Bft)
21.03.2010 03:00 13,4 C 81 % 1004,8 hPa 0,0 mm 6,4 km/h (2 Bft) SW 225 0 min 0 UV-I 0 W/m 22,5 km/h (4 Bft)
21.03.2010 03:10 13,5 C 80 % 1004,8 hPa 0,0 mm 4,8 km/h (1 Bft) SW 225 0 min 0 UV-I 0 W/m 16,1 km/h (3 Bft)
21.03.2010 03:20 13,6 C 80 % 1004,7 hPa 0,0 mm 6,4 km/h (2 Bft) SW 225 0 min 0 UV-I 0 W/m 22,5 km/h (4 Bft)
21.03.2010 03:30 13,6 C 79 % 1004,6 hPa 0,0 mm 6,4 km/h (2 Bft) S-SW 202 0 min 0 UV-I 0 W/m 17,7 km/h (3 Bft)
21.03.2010 03:40 13,7 C 79 % 1004,5 hPa 0,0 mm 8,0 km/h (2 Bft) SW 225 0 min 0 UV-I 0 W/m 24,1 km/h (4 Bft)
21.03.2010 03:50 13,7 C 78 % 1004,4 hPa 0,0 mm 8,0 km/h (2 Bft) SW 225 0 min 0 UV-I 0 W/m 22,5 km/h (4 Bft)
21.03.2010 04:00 13,7 C 78 % 1004,3 hPa 0,0 mm 8,0 km/h (2 Bft) S-SW 202 0 min 0 UV-I 0 W/m 22,5 km/h (4 Bft)
21.03.2010 04:10 13,7 C 78 % 1004,3 hPa 0,0 mm 9,7 km/h (2 Bft) SW 225 0 min 0 UV-I 0 W/m 32,2 km/h (5 Bft)
21.03.2010 04:20 13,6 C 80 % 1005,1 hPa 1,5 mm 8,0 km/h (2 Bft) W 270 0 min 0 UV-I 0 W/m 25,7 km/h (4 Bft)
21.03.2010 04:30 12,6 C 85 % 1005,0 hPa 0,5 mm 3,2 km/h (1 Bft) W 270 0 min 0 UV-I 0 W/m 14,5 km/h (3 Bft)
21.03.2010 04:40 11,8 C 87 % 1005,0 hPa 0,0 mm 1,6 km/h (1 Bft) W-SW 247 0 min 0 UV-I 0 W/m 9,7 km/h (2 Bft)
21.03.2010 04:50 11,6 C 88 % 1005,0 hPa 1,0 mm 1,6 km/h (1 Bft) W 270 0 min 0 UV-I 0 W/m 9,7 km/h (2 Bft)
21.03.2010 05:00 11,3 C 89 % 1005,1 hPa 0,5 mm 0,0 km/h (0 Bft) W 270 0 min 0 UV-I 0 W/m 3,2 km/h (1 Bft)
21.03.2010 05:10 11,2 C 90 % 1005,2 hPa 1,0 mm 0,0 km/h (0 Bft) W 270 0 min 0 UV-I 0 W/m 3,2 km/h (1 Bft)
21.03.2010 05:20 11,2 C 90 % 1005,4 hPa 1,3 mm 0,0 km/h (0 Bft) W 270 0 min 0 UV-I 0 W/m 1,6 km/h (1 Bft)
21.03.2010 05:30 11,1 C 91 % 1005,6 hPa 1,8 mm 1,6 km/h (1 Bft) W 270 0 min 0 UV-I 0 W/m 6,4 km/h (2 Bft)
21.03.2010 05:40 11,1 C 91 % 1005,5 hPa 1,0 mm 0,0 km/h (0 Bft) SW 225 0 min 0 UV-I 0 W/m 4,8 km/h (1 Bft)
21.03.2010 05:50 11,1 C 91 % 1005,6 hPa 0,3 mm 1,6 km/h (1 Bft) W 270 0 min 0 UV-I 0 W/m 6,4 km/h (2 Bft)
21.03.2010 06:00 11,1 C 91 % 1005,6 hPa 0,3 mm 0,0 km/h (0 Bft) S-SW 202 0 min 0 UV-I 0 W/m 6,4 km/h (2 Bft)
21.03.2010 06:10 11,0 C 91 % 1005,5 hPa 0,3 mm 0,0 km/h (0 Bft) S-SW 202 0 min 0 UV-I 0 W/m 3,2 km/h (1 Bft)
21.03.2010 06:20 10,9 C 91 % 1005,6 hPa 0,3 mm 0,0 km/h (0 Bft) S-SW 202 0 min 0 UV-I 0 W/m 3,2 km/h (1 Bft)
21.03.2010 06:30 10,9 C 91 % 1005,8 hPa 0,3 mm 1,6 km/h (1 Bft) SW 225 0 min 0 UV-I 0 W/m 6,4 km/h (2 Bft)
21.03.2010 06:40 10,9 C 91 % 1005,7 hPa 0,8 mm 1,6 km/h (1 Bft) SW 225 0 min 0 UV-I 0 W/m 8,0 km/h (2 Bft)
21.03.2010 06:50 10,8 C 91 % 1005,7 hPa 0,5 mm 3,2 km/h (1 Bft) SW 225 0 min 0 UV-I 0 W/m 11,3 km/h (2 Bft)
21.03.2010 07:00 10,8 C 92 % 1005,7 hPa 0,3 mm 0,0 km/h (0 Bft) SW 225 0 min 0 UV-I 0 W/m 4,8 km/h (1 Bft)
21.03.2010 07:10 10,8 C 91 % 1005,7 hPa 0,0 mm 1,6 km/h (1 Bft) S 180 0 min 0 UV-I 5 W/m 4,8 km/h (1 Bft)
21.03.2010 07:20 10,7 C 92 % 1005,9 hPa 0,0 mm 1,6 km/h (1 Bft) S-SW 202 0 min 0 UV-I 5 W/m 4,8 km/h (1 Bft)
21.03.2010 07:30 10,7 C 92 % 1006,1 hPa 0,0 mm 0,0 km/h (0 Bft) W-SW 247 0 min 0 UV-I 9 W/m 3,2 km/h (1 Bft)
21.03.2010 07:40 10,7 C 92 % 1006,1 hPa 0,0 mm 0,0 km/h (0 Bft) W-SW 247 0 min 0 UV-I 26 W/m 3,2 km/h (1 Bft)
21.03.2010 07:50 10,7 C 92 % 1006,3 hPa 0,0 mm 0,0 km/h (0 Bft) SW 225 0 min 0 UV-I 23 W/m 4,8 km/h (1 Bft)
21.03.2010 08:00 10,8 C 92 % 1006,4 hPa 0,0 mm 3,1 km/h (1 Bft) S 187 0 min 0 UV-I 21 W/m 6,4 km/h (2 Bft)
21.03.2010 08:10 10,8 C 92 % 1006,5 hPa 0,0 mm 3,2 km/h (1 Bft) SW 225 0 min 0 UV-I 21 W/m 9,7 km/h (2 Bft)
21.03.2010 08:20 10,9 C 92 % 1006,6 hPa 0,0 mm 3,2 km/h (1 Bft) SW 225 0 min 0 UV-I 18 W/m 11,3 km/h (2 Bft)
21.03.2010 08:30 10,9 C 92 % 1006,9 hPa 0,0 mm 4,8 km/h (1 Bft) W-SW 247 0 min 0 UV-I 33 W/m 11,3 km/h (2 Bft)
21.03.2010 08:40 11,0 C 92 % 1007,0 hPa 0,0 mm 3,2 km/h (1 Bft) SW 225 0 min 0 UV-I 62 W/m 11,3 km/h (2 Bft)
21.03.2010 08:50 11,0 C 92 % 1007,2 hPa 0,0 mm 6,4 km/h (2 Bft) W-SW 247 0 min 0 UV-I 51 W/m 17,7 km/h (3 Bft)
21.03.2010 09:00 10,9 C 92 % 1007,3 hPa 0,0 mm 6,4 km/h (2 Bft) W-SW 247 0 min 0 UV-I 60 W/m 16,1 km/h (3 Bft)
21.03.2010 09:10 10,8 C 92 % 1007,6 hPa 0,0 mm 4,8 km/h (1 Bft) W-SW 247 0 min 0 UV-I 56 W/m 9,7 km/h (2 Bft)
21.03.2010 09:20 10,9 C 92 % 1007,8 hPa 0,0 mm 4,8 km/h (1 Bft) W-SW 247 0 min 0 UV-I 49 W/m 11,3 km/h (2 Bft)
21.03.2010 09:30 11,0 C 92 % 1008,0 hPa 0,0 mm 4,8 km/h (1 Bft) W-SW 247 0 min 0 UV-I 46 W/m 14,5 km/h (3 Bft)
21.03.2010 09:40 11,1 C 91 % 1008,1 hPa 0,0 mm 8,0 km/h (2 Bft) W-SW 247 0 min 1 UV-I 74 W/m 17,7 km/h (3 Bft)
21.03.2010 09:50 11,2 C 91 % 1008,2 hPa 0,0 mm 6,4 km/h (2 Bft) W 270 0 min 1 UV-I 69 W/m 20,9 km/h (4 Bft)
21.03.2010 10:00 11,2 C 91 % 1008,4 hPa 0,0 mm 4,8 km/h (1 Bft) W 270 0 min 1 UV-I 67 W/m 16,1 km/h (3 Bft)
21.03.2010 10:10 11,2 C 90 % 1008,6 hPa 0,0 mm 3,2 km/h (1 Bft) W 270 0 min 0 UV-I 40 W/m 11,3 km/h (2 Bft)
21.03.2010 10:20 11,3 C 90 % 1008,7 hPa 0,0 mm 4,8 km/h (1 Bft) W 270 0 min 0 UV-I 63 W/m 11,3 km/h (2 Bft)
21.03.2010 10:30 11,3 C 90 % 1008,8 hPa 0,0 mm 4,8 km/h (1 Bft) W 270 0 min 1 UV-I 77 W/m 16,1 km/h (3 Bft)
21.03.2010 10:40 11,3 C 90 % 1009,1 hPa 0,0 mm 4,8 km/h (1 Bft) W-NW 292 0 min 1 UV-I 76 W/m 11,3 km/h (2 Bft)
21.03.2010 10:50 11,2 C 89 % 1009,3 hPa 0,0 mm 4,8 km/h (1 Bft) W-NW 292 0 min 1 UV-I 74 W/m 17,7 km/h (3 Bft)
21.03.2010 11:00 11,1 C 89 % 1009,5 hPa 0,0 mm 4,8 km/h (1 Bft) W 270 0 min 1 UV-I 93 W/m 16,1 km/h (3 Bft)
21.03.2010 11:10 10,9 C 88 % 1009,7 hPa 0,0 mm 6,4 km/h (2 Bft) W 270 0 min 1 UV-I 63 W/m 17,7 km/h (3 Bft)
21.03.2010 11:20 10,9 C 88 % 1010,0 hPa 0,0 mm 4,8 km/h (1 Bft) W 270 0 min 1 UV-I 97 W/m 16,1 km/h (3 Bft)
21.03.2010 11:30 10,8 C 88 % 1010,1 hPa 0,0 mm 4,8 km/h (1 Bft) W 270 0 min 2 UV-I 213 W/m 16,1 km/h (3 Bft)
21.03.2010 11:40 11,1 C 88 % 1010,3 hPa 0,0 mm 4,8 km/h (1 Bft) W-NW 292 0 min 2 UV-I 237 W/m 12,9 km/h (3 Bft)
21.03.2010 11:50 11,3 C 87 % 1010,4 hPa 0,0 mm 4,8 km/h (1 Bft) W 270 0 min 2 UV-I 199 W/m 9,7 km/h (2 Bft)
21.03.2010 12:00 11,2 C 86 % 1010,6 hPa 0,0 mm 4,8 km/h (1 Bft) W 270 0 min 0 UV-I 33 W/m 17,7 km/h (3 Bft)
21.03.2010 12:10 11,1 C 85 % 1010,9 hPa 0,0 mm 4,8 km/h (1 Bft) W 270 0 min 0 UV-I 23 W/m 16,1 km/h (3 Bft)
21.03.2010 12:20 10,9 C 84 % 1011,0 hPa 0,0 mm 4,8 km/h (1 Bft) W-NW 292 0 min 0 UV-I 33 W/m 17,7 km/h (3 Bft)
21.03.2010 12:30 10,7 C 84 % 1011,1 hPa 0,0 mm 6,4 km/h (2 Bft) W-SW 247 0 min 0 UV-I 40 W/m 24,1 km/h (4 Bft)
21.03.2010 12:40 10,6 C 85 % 1010,8 hPa 0,0 mm 6,4 km/h (2 Bft) W-SW 247 0 min 0 UV-I 54 W/m 17,7 km/h (3 Bft)
21.03.2010 12:50 10,5 C 85 % 1011,0 hPa 0,0 mm 8,0 km/h (2 Bft) W 270 0 min 0 UV-I 49 W/m 20,9 km/h (4 Bft)
21.03.2010 13:00 10,4 C 86 % 1011,7 hPa 0,0 mm 8,0 km/h (2 Bft) W-SW 247 0 min 0 UV-I 49 W/m 22,5 km/h (4 Bft)
21.03.2010 13:10 10,3 C 87 % 1012,0 hPa 0,0 mm 4,8 km/h (1 Bft) W 270 0 min 0 UV-I 46 W/m 16,1 km/h (3 Bft)
21.03.2010 13:20 10,2 C 87 % 1012,2 hPa 0,3 mm 3,2 km/h (1 Bft) W-NW 292 0 min 1 UV-I 90 W/m 14,5 km/h (3 Bft)
21.03.2010 13:30 10,1 C 88 % 1012,4 hPa 0,3 mm 8,0 km/h (2 Bft) W 270 0 min 1 UV-I 142 W/m 22,5 km/h (4 Bft)
21.03.2010 13:40 9,9 C 89 % 1012,5 hPa 0,0 mm 4,8 km/h (1 Bft) W 270 0 min 1 UV-I 144 W/m 17,7 km/h (3 Bft)
21.03.2010 13:50 9,9 C 90 % 1012,6 hPa 0,0 mm 4,8 km/h (1 Bft) W-SW 247 0 min 1 UV-I 169 W/m 16,1 km/h (3 Bft)
21.03.2010 14:00 10,0 C 90 % 1012,7 hPa 0,0 mm 4,8 km/h (1 Bft) W-SW 247 0 min 1 UV-I 172 W/m 16,1 km/h (3 Bft)
21.03.2010 14:10 10,1 C 91 % 1012,8 hPa 0,0 mm 4,8 km/h (1 Bft) W 270 0 min 1 UV-I 190 W/m 14,5 km/h (3 Bft)
21.03.2010 14:20 10,1 C 91 % 1013,0 hPa 0,0 mm 4,8 km/h (1 Bft) W 270 0 min 1 UV-I 176 W/m 16,1 km/h (3 Bft)
21.03.2010 14:30 10,1 C 91 % 1013,2 hPa 0,0 mm 4,8 km/h (1 Bft) W-SW 247 0 min 1 UV-I 97 W/m 19,3 km/h (3 Bft)
21.03.2010 14:40 9,9 C 90 % 1013,5 hPa 0,3 mm 3,2 km/h (1 Bft) W-NW 292 0 min 0 UV-I 33 W/m 17,7 km/h (3 Bft)
21.03.2010 14:50 9,5 C 90 % 1013,7 hPa 0,3 mm 3,2 km/h (1 Bft) N-NO 22 0 min 1 UV-I 69 W/m 11,3 km/h (2 Bft)
21.03.2010 15:00 9,3 C 90 % 1014,0 hPa 0,0 mm 4,8 km/h (1 Bft) N-NO 22 0 min 1 UV-I 83 W/m 11,3 km/h (2 Bft)
21.03.2010 15:10 9,1 C 90 % 1014,1 hPa 0,0 mm 3,2 km/h (1 Bft) N-NO 22 0 min 1 UV-I 58 W/m 11,3 km/h (2 Bft)
21.03.2010 15:20 8,9 C 90 % 1014,3 hPa 0,0 mm 1,6 km/h (1 Bft) N 360 0 min 1 UV-I 65 W/m 8,0 km/h (2 Bft)
21.03.2010 15:30 8,8 C 91 % 1014,5 hPa 0,0 mm 0,0 km/h (0 Bft) N-NO 22 0 min 1 UV-I 88 W/m 4,8 km/h (1 Bft)
21.03.2010 15:40 8,8 C 90 % 1014,7 hPa 0,0 mm 1,6 km/h (1 Bft) N-NO 22 0 min 1 UV-I 72 W/m 8,0 km/h (2 Bft)
21.03.2010 15:50 8,7 C 90 % 1014,9 hPa 0,0 mm 3,2 km/h (1 Bft) N 360 0 min 0 UV-I 39 W/m 11,3 km/h (2 Bft)
21.03.2010 16:00 8,7 C 91 % 1015,0 hPa 0,0 mm 1,6 km/h (1 Bft) N 360 0 min 0 UV-I 54 W/m 4,8 km/h (1 Bft)
21.03.2010 16:10 8,6 C 91 % 1015,2 hPa 0,0 mm 0,0 km/h (0 Bft) N 360 0 min 0 UV-I 35 W/m 1,6 km/h (1 Bft)
21.03.2010 16:20 8,6 C 91 % 1015,3 hPa 0,0 mm 0,0 km/h (0 Bft) N 360 0 min 0 UV-I 37 W/m 1,6 km/h (1 Bft)
21.03.2010 16:30 8,6 C 91 % 1015,4 hPa 0,0 mm 0,0 km/h (0 Bft) N 360 0 min 0 UV-I 58 W/m 3,2 km/h (1 Bft)
21.03.2010 16:40 8,6 C 91 % 1015,6 hPa 0,0 mm 0,0 km/h (0 Bft) N 360 0 min 0 UV-I 86 W/m 3,2 km/h (1 Bft)
21.03.2010 16:50 8,6 C 91 % 1015,7 hPa 0,0 mm 0,0 km/h (0 Bft) N 360 0 min 0 UV-I 90 W/m 1,6 km/h (1 Bft)
21.03.2010 17:00 8,7 C 91 % 1015,8 hPa 0,0 mm 0,0 km/h (0 Bft) N 360 0 min 0 UV-I 100 W/m 4,8 km/h (1 Bft)
21.03.2010 17:10 8,8 C 91 % 1015,9 hPa 0,0 mm 0,0 km/h (0 Bft) W 270 10 min 0 UV-I 158 W/m 3,2 km/h (1 Bft)
21.03.2010 17:20 9,1 C 90 % 1015,2 hPa 0,0 mm 0,0 km/h (0 Bft) W 270 10 min 0 UV-I 171 W/m 4,8 km/h (1 Bft)
21.03.2010 17:30 9,2 C 89 % 1016,1 hPa 0,0 mm 0,0 km/h (0 Bft) W 270 0 min 0 UV-I 93 W/m 3,2 km/h (1 Bft)
21.03.2010 17:40 9,2 C 89 % 1015,8 hPa 0,0 mm 0,0 km/h (0 Bft) W 270 0 min 0 UV-I 70 W/m 3,2 km/h (1 Bft)
21.03.2010 17:50 9,3 C 88 % 1016,5 hPa 0,0 mm 0,0 km/h (0 Bft) W 270 0 min 0 UV-I 54 W/m 3,2 km/h (1 Bft)
21.03.2010 18:00 9,3 C 88 % 1016,8 hPa 0,0 mm 0,0 km/h (0 Bft) W-SW 247 0 min 0 UV-I 37 W/m 3,2 km/h (1 Bft)
21.03.2010 18:10 9,3 C 88 % 1016,0 hPa 0,0 mm 0,0 km/h (0 Bft) W-SW 247 0 min 0 UV-I 26 W/m 1,6 km/h (1 Bft)
21.03.2010 18:20 9,3 C 88 % 1017,0 hPa 0,0 mm 0,0 km/h (0 Bft) W-SW 247 0 min 0 UV-I 18 W/m 3,2 km/h (1 Bft)
21.03.2010 18:30 9,2 C 88 % 1017,2 hPa 0,0 mm 0,0 km/h (0 Bft) W-SW 247 0 min 0 UV-I 11 W/m 3,2 km/h (1 Bft)
21.03.2010 18:40 9,1 C 88 % 1017,2 hPa 0,0 mm 0,0 km/h (0 Bft) W-SW 247 0 min 0 UV-I 5 W/m 4,8 km/h (1 Bft)
21.03.2010 18:50 8,9 C 88 % 1016,7 hPa 0,0 mm 0,0 km/h (0 Bft) W-SW 247 0 min 0 UV-I 0 W/m 3,2 km/h (1 Bft)
21.03.2010 19:00 8,8 C 88 % 1015,4 hPa 0,0 mm 0,0 km/h (0 Bft) W-SW 247 0 min 0 UV-I 0 W/m 1,6 km/h (1 Bft)
21.03.2010 19:10 8,7 C 88 % 1017,3 hPa 0,0 mm 0,0 km/h (0 Bft) W-SW 247 0 min 0 UV-I 0 W/m 1,6 km/h (1 Bft)
21.03.2010 19:20 8,5 C 88 % 1017,6 hPa 0,0 mm 0,0 km/h (0 Bft) W-SW 247 0 min 0 UV-I 0 W/m 1,6 km/h (1 Bft)
21.03.2010 19:30 8,3 C 88 % 1017,7 hPa 0,0 mm 0,0 km/h (0 Bft) W-SW 247 0 min 0 UV-I 0 W/m 3,2 km/h (1 Bft)
21.03.2010 19:40 8,2 C 88 % 1017,5 hPa 0,0 mm 0,0 km/h (0 Bft) W-SW 247 0 min 0 UV-I 0 W/m 3,2 km/h (1 Bft)
21.03.2010 19:50 8,1 C 89 % 1016,6 hPa 0,0 mm 0,0 km/h (0 Bft) W-SW 247 0 min 0 UV-I 0 W/m 3,2 km/h (1 Bft)
21.03.2010 20:00 8,0 C 89 % 1018,2 hPa 0,0 mm 0,0 km/h (0 Bft) W-SW 247 0 min 0 UV-I 0 W/m 1,6 km/h (1 Bft)
21.03.2010 20:10 7,9 C 89 % 1018,4 hPa 0,0 mm 0,0 km/h (0 Bft) W-SW 247 0 min 0 UV-I 0 W/m 1,6 km/h (1 Bft)
21.03.2010 20:20 7,8 C 89 % 1019,0 hPa 0,0 mm 0,0 km/h (0 Bft) W-SW 247 0 min 0 UV-I 0 W/m 3,2 km/h (1 Bft)
21.03.2010 20:30 7,7 C 89 % 1019,2 hPa 0,0 mm 0,0 km/h (0 Bft) W-SW 247 0 min 0 UV-I 0 W/m 4,8 km/h (1 Bft)
21.03.2010 20:40 7,5 C 90 % 1018,5 hPa 0,0 mm 0,0 km/h (0 Bft) W-SW 247 0 min 0 UV-I 0 W/m 3,2 km/h (1 Bft)
21.03.2010 20:50 7,3 C 90 % 1018,8 hPa 0,0 mm 0,0 km/h (0 Bft) W-SW 247 0 min 0 UV-I 0 W/m 3,2 km/h (1 Bft)
21.03.2010 21:00 7,2 C 90 % 1019,2 hPa 0,0 mm 0,0 km/h (0 Bft) W-SW 247 0 min 0 UV-I 0 W/m 1,6 km/h (1 Bft)
21.03.2010 21:10 7,2 C 90 % 1019,7 hPa 0,0 mm 0,0 km/h (0 Bft) W-SW 247 0 min 0 UV-I 0 W/m 1,6 km/h (1 Bft)
21.03.2010 21:20 7,1 C 90 % 1019,5 hPa 0,0 mm 0,0 km/h (0 Bft) W-SW 247 0 min 0 UV-I 0 W/m 1,6 km/h (1 Bft)
21.03.2010 21:30 7,0 C 90 % 1019,6 hPa 0,0 mm 0,0 km/h (0 Bft) N 0 0 min 0 UV-I 0 W/m 0,0 km/h (0 Bft)
21.03.2010 21:40 6,9 C 90 % 1019,7 hPa 0,0 mm 0,0 km/h (0 Bft) N 0 0 min 0 UV-I 0 W/m 0,0 km/h (0 Bft)
21.03.2010 21:50 6,8 C 90 % 1019,8 hPa 0,0 mm 0,0 km/h (0 Bft) N 0 0 min 0 UV-I 0 W/m 0,0 km/h (0 Bft)
21.03.2010 22:00 6,6 C 90 % 1019,9 hPa 0,0 mm 0,0 km/h (0 Bft) N 0 0 min 0 UV-I 0 W/m 0,0 km/h (0 Bft)
21.03.2010 22:10 6,5 C 90 % 1019,7 hPa 0,0 mm 0,0 km/h (0 Bft) N 0 0 min 0 UV-I 0 W/m 0,0 km/h (0 Bft)
21.03.2010 22:20 6,4 C 90 % 1019,6 hPa 0,0 mm 0,0 km/h (0 Bft) N 0 0 min 0 UV-I 0 W/m 0,0 km/h (0 Bft)
21.03.2010 22:30 6,3 C 90 % 1019,8 hPa 0,0 mm 0,0 km/h (0 Bft) N 0 0 min 0 UV-I 0 W/m 0,0 km/h (0 Bft)
21.03.2010 22:40 6,2 C 90 % 1020,0 hPa 0,0 mm 0,0 km/h (0 Bft) N 0 0 min 0 UV-I 0 W/m 0,0 km/h (0 Bft)
21.03.2010 22:50 6,1 C 90 % 1020,2 hPa 0,0 mm 0,0 km/h (0 Bft) N 0 0 min 0 UV-I 0 W/m 0,0 km/h (0 Bft)
21.03.2010 23:00 6,0 C 90 % 1020,3 hPa 0,0 mm 0,0 km/h (0 Bft) N 0 0 min 0 UV-I 0 W/m 0,0 km/h (0 Bft)
21.03.2010 23:10 5,9 C 90 % 1020,3 hPa 0,0 mm 0,0 km/h (0 Bft) N 0 0 min 0 UV-I 0 W/m 0,0 km/h (0 Bft)
21.03.2010 23:20 5,8 C 90 % 1019,1 hPa 0,0 mm 0,0 km/h (0 Bft) W-SW 242 0 min 0 UV-I 0 W/m 0,0 km/h (0 Bft)
21.03.2010 23:30 5,7 C 90 % 1019,6 hPa 0,0 mm 0,0 km/h (0 Bft) N 0 0 min 0 UV-I 0 W/m 0,0 km/h (0 Bft)
21.03.2010 23:40 5,6 C 90 % 1019,6 hPa 0,0 mm 0,0 km/h (0 Bft) N 0 0 min 0 UV-I 0 W/m 0,0 km/h (0 Bft)
21.03.2010 23:50 5,5 C 90 % 1019,7 hPa 0,0 mm 0,0 km/h (0 Bft) N 0 0 min 0 UV-I 0 W/m 0,0 km/h (0 Bft)
_ Min-Zeit 23:50 03:50 04:00 - 05:00 - - - - - 21:30
Minimum _ 5,4 C 78 % 1004,3 hPa - 0,0 km/h (0 Bft) - - - - - 0,0 km/h (0 Bft)
_ Max-Zeit 01:30 07:00 23:00 05:30 04:10 - - 17:10 11:40 11:40 04:10
Maximum _ 13,8 C 92 % 1020,3 hPa 1,8 mm 9,7 km/h
SW (2 Bft)
- - 10 min 2 UV-I 237 W/m 32,2 km/h
SW (5 Bft)
Durchschnitt _ 10,2 C 88 % 1011,3 hPa #12,7 mm 2,7 km/h (1 Bft) SW - #20 min. 1 UV-I 72 W/m 9,7 km/h (2 Bft)